Artesian, South Dakota
Current Conditions -  °F | °C
As of 2:53 AM on Wednesday 26 Nov 2014 (Local Time) from KMHE Reporting Station
Overcast Overcast  
Wind Chill: 25°   Ceiling: 2400
Heat Index: 35°   Visibility: 10mi
Dew Point: 32°   Wind: 17mph
Humidity: 89%   Direction: 320°NW
Pressure: 29.89"   Gusts: NA
Location:  44.01°N, 97.92°W
Report Text: KMHE 260853Z AUTO 32015KT 10SM SCT012 OVC024 02/00 A2989 RMK AO2 SLP133 T00170000 53022 $
Loading
Personal Weather Stations






























Interactive Weather Map New forecast layout! Learn more

10-Day Weather Forecast

Advertisements
Track Severe Weather on mobile